createdAt,value
2023-03-03T00:00:54.853Z,83.45
2023-03-03T00:05:49.802Z,78.25
2023-03-03T00:08:17.542Z,83.47
2023-03-03T00:10:45.408Z,79.95
2023-03-03T00:18:47.082Z,87.72
2023-03-03T00:21:26.164Z,89.28
2023-03-03T00:23:53.698Z,80.65
2023-03-03T00:26:37.985Z,80.32
2023-03-03T00:31:49.840Z,81.35
2023-03-03T00:34:27.205Z,80.88
2023-03-03T00:36:56.293Z,89.82
2023-03-03T00:49:43.421Z,87.30
2023-03-03T00:52:14.945Z,88.35
2023-03-03T00:54:42.076Z,78.57
2023-03-03T00:57:09.435Z,82.07
2023-03-03T00:59:36.239Z,82.35
2023-03-03T01:02:03.224Z,82.68
2023-03-03T01:04:30.253Z,97.30
2023-03-03T01:06:57.242Z,100.57
2023-03-03T01:19:07.845Z,104.43
2023-03-03T01:21:34.801Z,103.07
2023-03-03T01:28:53.054Z,102.70
2023-03-03T01:33:46.147Z,109.30
2023-03-03T01:36:13.274Z,102.22
2023-03-03T01:38:40.259Z,102.40
2023-03-03T01:41:07.276Z,113.30
2023-03-03T01:43:34.293Z,110.45
2023-03-03T01:48:40.662Z,109.35
2023-03-03T01:51:18.575Z,113.72
2023-03-03T01:53:48.071Z,111.18
2023-03-03T01:56:14.949Z,114.85
2023-03-03T01:58:47.161Z,112.85
2023-03-03T02:01:19.584Z,119.43
2023-03-03T02:06:16.676Z,111.32
2023-03-03T02:08:49.096Z,109.88
2023-03-03T02:11:16.425Z,108.28
2023-03-03T02:13:43.472Z,113.97
2023-03-03T02:21:07.721Z,118.15
2023-03-03T02:23:54.992Z,115.05
2023-03-03T02:26:23.108Z,109.47
2023-03-03T02:28:50.591Z,108.78
2023-03-03T02:36:16.498Z,113.82
2023-03-03T02:41:12.196Z,125.95
2023-03-03T02:43:45.767Z,135.73
2023-03-03T02:48:38.369Z,141.70
2023-03-03T02:51:05.522Z,134.70
2023-03-03T02:53:32.701Z,157.93
2023-03-03T02:55:59.871Z,154.90
2023-03-03T02:58:26.712Z,142.43
2023-03-03T03:05:48.594Z,143.73
2023-03-03T03:15:35.785Z,149.52
2023-03-03T03:20:29.778Z,184.30
2023-03-03T03:22:57.039Z,175.52
2023-03-03T03:27:49.609Z,201.98
2023-03-03T03:30:16.687Z,194.70
2023-03-03T03:32:43.858Z,185.15
2023-03-03T03:35:11.558Z,191.18
2023-03-03T03:37:38.710Z,197.63
2023-03-03T03:40:06.305Z,188.57
2023-03-03T03:42:33.554Z,193.77
2023-03-03T03:45:00.634Z,200.90
2023-03-03T03:47:27.794Z,193.85
2023-03-03T03:49:56.849Z,197.43
2023-03-03T03:52:23.976Z,202.15
2023-03-03T03:59:42.192Z,197.63
2023-03-03T04:02:09.306Z,207.13
2023-03-03T04:04:36.849Z,204.13
2023-03-03T04:07:03.599Z,213.25
2023-03-03T04:09:30.485Z,205.73
2023-03-03T04:11:57.506Z,213.93
2023-03-03T04:14:25.331Z,205.50
2023-03-03T04:16:52.587Z,212.95
2023-03-03T04:19:19.795Z,218.30
2023-03-03T04:21:49.204Z,208.98
2023-03-03T04:38:49.865Z,220.10
2023-03-03T04:41:18.183Z,226.65
2023-03-03T04:43:45.809Z,236.23
2023-03-03T04:46:12.835Z,268.00
2023-03-03T04:48:39.692Z,277.95
2023-03-03T04:51:06.937Z,259.35
2023-03-03T04:53:41.489Z,251.50
2023-03-03T04:58:37.302Z,249.13
2023-03-03T05:01:04.398Z,253.15
2023-03-03T05:05:58.065Z,260.85
2023-03-03T05:08:25.061Z,250.45
2023-03-03T05:18:09.478Z,273.60
2023-03-03T05:20:36.623Z,256.73
2023-03-03T05:23:03.631Z,261.60
2023-03-03T05:30:22.007Z,267.50
2023-03-03T05:42:34.528Z,318.50
2023-03-03T05:45:01.591Z,299.40
2023-03-03T05:47:29.484Z,330.10
2023-03-03T05:54:48.209Z,352.40
2023-03-03T05:57:15.560Z,340.50
2023-03-03T05:59:42.540Z,341.55
2023-03-03T06:02:09.369Z,339.55
2023-03-03T06:07:02.031Z,354.92
2023-03-03T06:09:29.394Z,335.75
2023-03-03T06:11:56.394Z,326.48
2023-03-03T06:14:24.810Z,345.35
2023-03-03T06:16:53.539Z,345.83
2023-03-03T06:24:11.509Z,300.30
2023-03-03T06:26:38.680Z,314.42
2023-03-03T06:29:05.681Z,333.80
2023-03-03T06:31:32.603Z,356.92
2023-03-03T06:33:59.651Z,319.83
2023-03-03T06:36:26.814Z,309.98
2023-03-03T06:43:44.945Z,273.77
2023-03-03T06:46:11.762Z,278.23
2023-03-03T06:51:11.121Z,251.77
2023-03-03T06:53:38.241Z,275.30
2023-03-03T06:58:36.320Z,277.10
2023-03-03T07:01:03.215Z,269.50
2023-03-03T07:05:59.991Z,227.63
2023-03-03T07:08:30.104Z,153.95
2023-03-03T07:13:28.733Z,111.65
2023-03-03T07:15:56.905Z,82.95
2023-03-03T07:20:52.211Z,67.80
2023-03-03T07:23:21.878Z,64.53
2023-03-03T07:25:49.352Z,64.38
2023-03-03T07:28:24.616Z,61.33
2023-03-03T07:33:38.460Z,57.00
2023-03-03T07:38:53.111Z,63.92
2023-03-03T07:41:25.996Z,50.83
2023-03-03T07:46:30.414Z,79.82
2023-03-03T07:48:58.881Z,81.05
2023-03-03T07:51:28.185Z,80.97
2023-03-03T07:56:30.706Z,81.40
2023-03-03T07:58:58.792Z,79.85
2023-03-03T08:01:25.672Z,75.88
2023-03-03T08:03:52.854Z,112.78
2023-03-03T08:06:38.525Z,125.32
2023-03-03T08:09:05.535Z,109.95
2023-03-03T08:11:32.408Z,89.35
2023-03-03T08:21:16.713Z,116.93
2023-03-03T08:23:43.823Z,121.85
2023-03-03T08:26:10.827Z,102.53
2023-03-03T08:28:37.816Z,127.75
2023-03-03T08:31:16.843Z,96.90
2023-03-03T08:33:49.342Z,125.38
2023-03-03T08:41:07.599Z,90.05
2023-03-03T08:43:34.580Z,83.35
2023-03-03T08:46:02.572Z,88.28
2023-03-03T08:48:29.562Z,81.35
2023-03-03T08:50:56.715Z,70.60
2023-03-03T09:05:33.686Z,58.90
2023-03-03T09:08:01.074Z,71.50
2023-03-03T09:10:29.528Z,63.13
2023-03-03T09:15:29.428Z,46.03
2023-03-03T09:31:01.794Z,42.70
2023-03-03T09:33:40.959Z,46.35
2023-03-03T09:36:23.543Z,28.77
2023-03-03T09:38:51.040Z,31.55
2023-03-03T09:41:36.652Z,26.42
2023-03-03T09:47:43.615Z,17.73
2023-03-03T09:50:13.464Z,24.23
2023-03-03T09:52:40.466Z,20.80
2023-03-03T10:00:34.763Z,17.25
2023-03-03T10:03:04.752Z,16.80
2023-03-03T10:18:50.917Z,23.08
2023-03-03T10:24:04.923Z,24.40
2023-03-03T10:26:46.480Z,14.30
2023-03-03T10:29:23.060Z,15.33
2023-03-03T10:31:58.423Z,19.20
2023-03-03T10:34:43.960Z,15.98
2023-03-03T10:37:21.635Z,16.08
2023-03-03T10:39:48.510Z,12.40
2023-03-03T10:42:21.258Z,20.50
2023-03-03T10:47:27.414Z,14.48
2023-03-03T10:50:12.907Z,10.73
2023-03-03T10:52:44.716Z,15.77
2023-03-03T10:55:30.188Z,13.27
2023-03-03T10:58:04.516Z,14.80
2023-03-03T11:03:30.412Z,10.43
2023-03-03T11:06:01.514Z,7.60
2023-03-03T11:08:46.852Z,10.75
2023-03-03T11:16:14.940Z,7.47
2023-03-03T11:18:41.882Z,11.55
2023-03-03T11:23:40.196Z,11.48
2023-03-03T11:26:25.576Z,6.88
2023-03-03T11:29:11.980Z,8.88
2023-03-03T11:31:45.462Z,10.43
2023-03-03T11:34:30.741Z,8.00
2023-03-03T11:37:02.199Z,5.88
2023-03-03T11:39:29.060Z,9.85
2023-03-03T11:44:36.283Z,4.57
2023-03-03T11:55:16.140Z,8.43
2023-03-03T12:00:37.630Z,10.68
2023-03-03T12:03:13.629Z,6.90
2023-03-03T12:05:52.685Z,6.55
2023-03-03T12:08:22.281Z,6.55
2023-03-03T12:10:53.095Z,8.65
2023-03-03T12:13:25.904Z,4.88
2023-03-03T12:16:02.549Z,6.43
2023-03-03T12:21:07.802Z,5.55
2023-03-03T12:23:53.002Z,7.22
2023-03-03T12:26:29.396Z,4.25
2023-03-03T12:33:57.759Z,9.30
2023-03-03T12:41:31.251Z,6.82
2023-03-03T12:44:06.990Z,8.18
2023-03-03T12:46:51.583Z,8.70
2023-03-03T13:05:19.399Z,6.88
2023-03-03T13:07:53.962Z,3.67
2023-03-03T13:10:24.207Z,7.38
2023-03-03T13:12:54.106Z,4.68
2023-03-03T13:18:12.349Z,10.25
2023-03-03T13:23:14.761Z,7.85
2023-03-03T13:25:58.201Z,9.98
2023-03-03T13:28:28.075Z,6.60
2023-03-03T13:31:08.912Z,6.32
2023-03-03T13:36:04.834Z,10.45
2023-03-03T13:38:33.952Z,9.02
2023-03-03T13:41:04.583Z,6.03
2023-03-03T13:43:36.123Z,5.30
2023-03-03T13:51:36.880Z,7.47
2023-03-03T13:54:06.659Z,5.32
2023-03-03T13:56:33.542Z,7.95
2023-03-03T14:01:40.981Z,9.10
2023-03-03T14:04:13.903Z,6.15
2023-03-03T14:06:44.009Z,8.15
2023-03-03T14:09:30.554Z,11.38
2023-03-03T14:12:04.496Z,7.97
2023-03-03T14:14:40.740Z,7.75
2023-03-03T14:19:40.664Z,4.40
2023-03-03T14:22:10.180Z,8.05
2023-03-03T14:24:56.043Z,4.82
2023-03-03T14:32:22.049Z,4.65
2023-03-03T14:34:57.492Z,13.30
2023-03-03T14:37:24.476Z,8.83
2023-03-03T14:42:39.519Z,11.10
2023-03-03T14:47:55.249Z,5.38
2023-03-03T14:50:48.418Z,9.25
2023-03-03T14:53:35.557Z,2.78
2023-03-03T14:56:34.625Z,7.40
2023-03-03T14:59:18.901Z,3.83
2023-03-03T15:01:46.485Z,8.80
2023-03-03T15:04:16.405Z,4.53
2023-03-03T15:06:44.723Z,8.02
2023-03-03T15:09:20.836Z,4.88
2023-03-03T15:11:50.989Z,4.47
2023-03-03T15:14:18.794Z,2.28
2023-03-03T15:16:46.047Z,4.10
2023-03-03T15:19:31.312Z,6.03
2023-03-03T15:22:03.107Z,7.03
2023-03-03T15:24:32.784Z,4.95
2023-03-03T15:26:59.721Z,4.32
2023-03-03T15:32:19.656Z,3.72
2023-03-03T15:35:09.361Z,5.63
2023-03-03T15:37:51.746Z,3.35
2023-03-03T15:43:11.801Z,7.78
2023-03-03T15:45:40.487Z,7.80
2023-03-03T15:48:10.598Z,5.05
2023-03-03T15:50:57.290Z,4.45
2023-03-03T15:58:45.041Z,12.68
2023-03-03T16:01:25.172Z,1.80
2023-03-03T16:09:22.762Z,4.00
2023-03-03T16:12:15.928Z,4.93
2023-03-03T16:22:39.596Z,7.78
2023-03-03T16:25:16.063Z,2.53
2023-03-03T16:28:01.446Z,5.00
2023-03-03T16:30:32.146Z,13.30
2023-03-03T16:33:18.356Z,7.13
2023-03-03T16:35:52.348Z,7.55
2023-03-03T16:38:23.752Z,11.00
2023-03-03T16:46:33.243Z,6.25
2023-03-03T16:49:09.786Z,4.10
2023-03-03T16:51:45.644Z,6.03
2023-03-03T16:54:19.377Z,5.53
2023-03-03T16:59:35.218Z,5.78
2023-03-03T17:04:46.535Z,7.22
2023-03-03T17:12:40.167Z,5.35
2023-03-03T17:15:07.226Z,8.57
2023-03-03T17:17:43.183Z,7.97
2023-03-03T17:20:16.279Z,14.25
2023-03-03T17:23:05.742Z,10.45
2023-03-03T17:28:24.110Z,16.83
2023-03-03T17:30:51.117Z,4.30
2023-03-03T17:33:33.085Z,8.43
2023-03-03T17:38:38.408Z,5.90
2023-03-03T17:41:21.494Z,8.98
2023-03-03T17:43:48.881Z,6.15
2023-03-03T17:46:42.019Z,6.47
2023-03-03T17:49:18.273Z,8.32
2023-03-03T17:54:33.907Z,4.10
2023-03-03T17:57:10.847Z,3.53
2023-03-03T17:59:47.592Z,5.70
2023-03-03T18:02:33.392Z,6.43
2023-03-03T18:05:06.428Z,7.72
2023-03-03T18:07:42.786Z,5.88
2023-03-03T18:26:14.039Z,8.32
2023-03-03T18:31:32.398Z,8.07
2023-03-03T18:34:01.436Z,14.63
2023-03-03T18:36:28.338Z,11.25
2023-03-03T18:38:56.629Z,12.02
2023-03-03T18:41:27.366Z,8.02
2023-03-03T18:44:32.996Z,15.10
2023-03-03T18:49:43.561Z,9.73
2023-03-03T18:52:10.353Z,5.15
2023-03-03T18:54:40.020Z,7.30
2023-03-03T18:59:35.130Z,6.35
2023-03-03T19:02:21.150Z,15.75
2023-03-03T19:15:42.915Z,13.25
2023-03-03T19:18:15.698Z,20.63
2023-03-03T19:31:04.976Z,14.35
2023-03-03T19:33:41.042Z,13.40
2023-03-03T19:44:46.093Z,12.23
2023-03-03T19:47:26.786Z,8.68
2023-03-03T19:52:50.328Z,15.93
2023-03-03T19:55:20.069Z,10.65
2023-03-03T19:57:48.141Z,9.57
2023-03-03T20:02:57.497Z,13.65
2023-03-03T20:05:36.860Z,16.30
2023-03-03T20:08:04.854Z,13.52
2023-03-03T20:21:12.704Z,8.98
2023-03-03T20:23:54.815Z,17.45
2023-03-03T20:26:30.226Z,11.27
2023-03-03T20:29:05.370Z,15.18
2023-03-03T20:36:39.866Z,18.45
2023-03-03T20:39:12.939Z,14.07
2023-03-03T20:44:22.564Z,16.50
2023-03-03T20:47:04.485Z,13.57
2023-03-03T20:49:50.310Z,16.90
2023-03-03T20:55:00.993Z,16.80
2023-03-03T20:57:36.768Z,12.85
2023-03-03T21:02:43.028Z,17.58
2023-03-03T21:05:10.134Z,16.83
2023-03-03T21:07:37.391Z,14.88
2023-03-03T21:10:15.679Z,15.20
2023-03-03T21:12:42.698Z,16.05
2023-03-03T21:15:23.611Z,16.13
2023-03-03T21:20:53.860Z,16.15
2023-03-03T21:23:21.335Z,19.85
2023-03-03T21:25:53.131Z,14.10
2023-03-03T21:28:20.582Z,18.15
2023-03-03T21:33:45.436Z,13.05
2023-03-03T21:36:16.546Z,19.88
2023-03-03T21:38:43.806Z,19.83
2023-03-03T21:48:29.543Z,17.15
2023-03-03T21:50:56.503Z,23.05
2023-03-03T21:53:24.032Z,15.32
2023-03-03T21:55:50.904Z,19.70
2023-03-03T21:58:17.886Z,18.67
2023-03-03T22:00:44.887Z,18.83
2023-03-03T22:10:33.790Z,22.90
2023-03-03T22:13:01.619Z,17.27
2023-03-03T22:15:30.772Z,19.88
2023-03-03T22:20:23.921Z,18.63
2023-03-03T22:22:51.111Z,23.70
2023-03-03T22:27:43.897Z,20.05
2023-03-03T22:30:11.116Z,21.65
2023-03-03T22:32:38.279Z,26.45
2023-03-03T22:35:05.640Z,22.75
2023-03-03T22:37:32.482Z,26.58
2023-03-03T22:40:02.283Z,29.98
2023-03-03T22:42:29.251Z,25.00
2023-03-03T22:44:56.300Z,24.33
2023-03-03T22:47:23.173Z,28.70
2023-03-03T22:49:50.312Z,33.15
2023-03-03T22:52:17.317Z,25.27
2023-03-03T22:57:09.752Z,77.85
2023-03-03T22:59:36.756Z,43.67
2023-03-03T23:04:29.796Z,40.03
2023-03-03T23:06:57.411Z,37.40
2023-03-03T23:11:49.986Z,46.88
2023-03-03T23:14:16.868Z,42.08
2023-03-03T23:21:35.130Z,39.05
2023-03-03T23:24:02.127Z,43.03
2023-03-03T23:28:54.560Z,39.50
2023-03-03T23:31:21.603Z,45.08
2023-03-03T23:33:48.580Z,42.72
2023-03-03T23:36:15.705Z,44.88
2023-03-03T23:38:43.262Z,42.05
2023-03-03T23:43:35.633Z,48.42
2023-03-03T23:46:02.651Z,46.95
2023-03-03T23:48:29.645Z,37.38
2023-03-03T23:50:56.534Z,39.00
2023-03-03T23:53:23.546Z,33.63
2023-03-03T23:55:50.553Z,42.25
